sensor_id;sensor_type;location;lat;lon;timestamp;pressure;altitude;pressure_sealevel;temperature;humidity
48872;BME280;36154;51.674;7.824;2023-01-31T00:01:14;101492.19;;;19.81;45.00
48872;BME280;36154;51.674;7.824;2023-01-31T00:03:41;101504.28;;;19.80;45.13
48872;BME280;36154;51.674;7.824;2023-01-31T00:06:42;101502.56;;;19.79;44.91
48872;BME280;36154;51.674;7.824;2023-01-31T00:09:02;101502.56;;;19.79;44.99
48872;BME280;36154;51.674;7.824;2023-01-31T00:11:29;101504.28;;;19.79;44.91
48872;BME280;36154;51.674;7.824;2023-01-31T00:13:56;101496.53;;;19.79;45.13
48872;BME280;36154;51.674;7.824;2023-01-31T00:16:22;101490.50;;;19.78;45.14
48872;BME280;36154;51.674;7.824;2023-01-31T00:18:48;101499.97;;;19.78;45.08
48872;BME280;36154;51.674;7.824;2023-01-31T00:21:23;101493.09;;;19.78;44.89
48872;BME280;36154;51.674;7.824;2023-01-31T00:23:49;101487.94;;;19.77;45.03
48872;BME280;36154;51.674;7.824;2023-01-31T00:26:23;101493.97;;;19.77;44.96
48872;BME280;36154;51.674;7.824;2023-01-31T00:28:50;101495.69;;;19.77;45.02
48872;BME280;36154;51.674;7.824;2023-01-31T00:31:18;101499.13;;;19.77;44.94
48872;BME280;36154;51.674;7.824;2023-01-31T00:33:44;101507.75;;;19.76;45.00
48872;BME280;36154;51.674;7.824;2023-01-31T00:36:16;101518.09;;;19.76;45.00
48872;BME280;36154;51.674;7.824;2023-01-31T00:38:46;101520.69;;;19.76;45.10
48872;BME280;36154;51.674;7.824;2023-01-31T00:41:12;101512.91;;;19.76;45.02
48872;BME280;36154;51.674;7.824;2023-01-31T00:43:37;101516.41;;;19.75;44.99
48872;BME280;36154;51.674;7.824;2023-01-31T00:46:03;101504.31;;;19.75;44.96
48872;BME280;36154;51.674;7.824;2023-01-31T00:48:29;101503.47;;;19.75;44.97
48872;BME280;36154;51.674;7.824;2023-01-31T00:50:55;101500.88;;;19.75;45.27
48872;BME280;36154;51.674;7.824;2023-01-31T00:53:22;101495.72;;;19.75;45.04
48872;BME280;36154;51.674;7.824;2023-01-31T00:55:52;101490.56;;;19.73;44.92
48872;BME280;36154;51.674;7.824;2023-01-31T00:58:18;101492.25;;;19.74;44.84
48872;BME280;36154;51.674;7.824;2023-01-31T01:00:44;101485.38;;;19.75;45.16
48872;BME280;36154;51.674;7.824;2023-01-31T01:03:09;101496.56;;;19.75;45.09
48872;BME280;36154;51.674;7.824;2023-01-31T01:05:35;101490.53;;;19.75;44.86
48872;BME280;36154;51.674;7.824;2023-01-31T01:08:00;101488.81;;;19.74;44.90
48872;BME280;36154;51.674;7.824;2023-01-31T01:10:25;101496.56;;;19.74;44.94
48872;BME280;36154;51.674;7.824;2023-01-31T01:12:51;101498.31;;;19.73;45.20
48872;BME280;36154;51.674;7.824;2023-01-31T01:15:16;101499.16;;;19.74;45.25
48872;BME280;36154;51.674;7.824;2023-01-31T01:17:41;101499.19;;;19.71;45.09
48872;BME280;36154;51.674;7.824;2023-01-31T01:20:07;101504.34;;;19.72;45.11
48872;BME280;36154;51.674;7.824;2023-01-31T01:22:33;101504.34;;;19.72;44.90
48872;BME280;36154;51.674;7.824;2023-01-31T01:24:59;101506.09;;;19.72;45.05
48872;BME280;36154;51.674;7.824;2023-01-31T01:27:24;101504.34;;;19.72;45.15
48872;BME280;36154;51.674;7.824;2023-01-31T01:29:51;101500.91;;;19.72;45.08
48872;BME280;36154;51.674;7.824;2023-01-31T01:32:17;101499.19;;;19.71;45.06
48872;BME280;36154;51.674;7.824;2023-01-31T01:34:42;101505.25;;;19.71;44.96
48872;BME280;36154;51.674;7.824;2023-01-31T01:37:07;101504.38;;;19.71;45.03
48872;BME280;36154;51.674;7.824;2023-01-31T01:39:47;101502.66;;;19.70;44.95
48872;BME280;36154;51.674;7.824;2023-01-31T01:42:18;101497.50;;;19.70;44.97
48872;BME280;36154;51.674;7.824;2023-01-31T01:44:58;101494.91;;;19.70;45.15
48872;BME280;36154;51.674;7.824;2023-01-31T01:50:03;101494.91;;;19.70;45.14
48872;BME280;36154;51.674;7.824;2023-01-31T01:52:30;101502.66;;;19.70;45.07
48872;BME280;36154;51.674;7.824;2023-01-31T01:55:10;101505.28;;;19.68;45.24
48872;BME280;36154;51.674;7.824;2023-01-31T01:57:39;101504.38;;;19.68;45.23
48872;BME280;36154;51.674;7.824;2023-01-31T02:00:13;101503.53;;;19.69;45.09
48872;BME280;36154;51.674;7.824;2023-01-31T02:02:40;101501.81;;;19.68;45.01
48872;BME280;36154;51.674;7.824;2023-01-31T02:05:07;101491.47;;;19.68;45.11
48872;BME280;36154;51.674;7.824;2023-01-31T02:07:32;101494.06;;;19.68;45.15
48872;BME280;36154;51.674;7.824;2023-01-31T02:10:10;101488.88;;;19.68;45.15
48872;BME280;36154;51.674;7.824;2023-01-31T02:12:38;101504.44;;;19.66;45.09
48872;BME280;36154;51.674;7.824;2023-01-31T02:15:04;101508.72;;;19.67;45.09
48872;BME280;36154;51.674;7.824;2023-01-31T02:17:30;101516.47;;;19.67;45.18
48872;BME280;36154;51.674;7.824;2023-01-31T02:20:07;101510.47;;;19.67;45.14
48872;BME280;36154;51.674;7.824;2023-01-31T02:26:18;101525.13;;;19.65;45.06
48872;BME280;36154;51.674;7.824;2023-01-31T02:34:15;101538.91;;;19.64;45.24
48872;BME280;36154;51.674;7.824;2023-01-31T02:39:35;101528.59;;;19.64;45.10
48872;BME280;36154;51.674;7.824;2023-01-31T02:42:09;101527.72;;;19.63;45.12
48872;BME280;36154;51.674;7.824;2023-01-31T02:45:02;101533.75;;;19.64;45.11
48872;BME280;36154;51.674;7.824;2023-01-31T02:47:55;101533.72;;;19.62;45.18
48872;BME280;36154;51.674;7.824;2023-01-31T02:53:29;101523.38;;;19.62;45.23
48872;BME280;36154;51.674;7.824;2023-01-31T02:56:06;101528.56;;;19.61;45.12
48872;BME280;36154;51.674;7.824;2023-01-31T02:58:47;101531.16;;;19.61;45.11
48872;BME280;36154;51.674;7.824;2023-01-31T03:01:18;101531.16;;;19.61;45.22
48872;BME280;36154;51.674;7.824;2023-01-31T03:03:45;101530.31;;;19.62;45.12
48872;BME280;36154;51.674;7.824;2023-01-31T03:08:37;101532.00;;;19.61;45.27
48872;BME280;36154;51.674;7.824;2023-01-31T03:11:09;101525.13;;;19.62;45.31
48872;BME280;36154;51.674;7.824;2023-01-31T03:19:09;101502.72;;;19.61;45.26
48872;BME280;36154;51.674;7.824;2023-01-31T03:21:47;101503.56;;;19.61;45.08
48872;BME280;36154;51.674;7.824;2023-01-31T03:24:15;101485.53;;;19.60;45.23
48872;BME280;36154;51.674;7.824;2023-01-31T03:26:41;101500.13;;;19.61;45.21
48872;BME280;36154;51.674;7.824;2023-01-31T03:29:10;101488.09;;;19.60;45.26
48872;BME280;36154;51.674;7.824;2023-01-31T03:31:41;101481.19;;;19.60;45.06
48872;BME280;36154;51.674;7.824;2023-01-31T03:34:09;101477.72;;;19.61;45.11
48872;BME280;36154;51.674;7.824;2023-01-31T03:41:56;101470.00;;;19.60;45.19
48872;BME280;36154;51.674;7.824;2023-01-31T03:44:34;101459.66;;;19.60;45.31
48872;BME280;36154;51.674;7.824;2023-01-31T03:47:12;101457.94;;;19.58;45.10
48872;BME280;36154;51.674;7.824;2023-01-31T03:49:40;101459.66;;;19.60;45.19
48872;BME280;36154;51.674;7.824;2023-01-31T03:52:07;101451.91;;;19.60;45.20
48872;BME280;36154;51.674;7.824;2023-01-31T03:54:39;101454.50;;;19.60;44.97
48872;BME280;36154;51.674;7.824;2023-01-31T03:57:14;101454.50;;;19.60;45.27
48872;BME280;36154;51.674;7.824;2023-01-31T03:59:43;101451.91;;;19.60;44.97
48872;BME280;36154;51.674;7.824;2023-01-31T04:02:12;101448.47;;;19.57;45.10
48872;BME280;36154;51.674;7.824;2023-01-31T04:04:44;101439.84;;;19.58;45.29
48872;BME280;36154;51.674;7.824;2023-01-31T04:07:13;101459.66;;;19.60;45.20
48872;BME280;36154;51.674;7.824;2023-01-31T04:09:38;101451.03;;;19.61;45.08
48872;BME280;36154;51.674;7.824;2023-01-31T04:12:04;101452.75;;;19.62;44.99
48872;BME280;36154;51.674;7.824;2023-01-31T04:14:30;101445.00;;;19.63;45.11
48872;BME280;36154;51.674;7.824;2023-01-31T04:16:55;101446.66;;;19.67;45.10
48872;BME280;36154;51.674;7.824;2023-01-31T04:19:20;101450.06;;;19.71;45.13
48872;BME280;36154;51.674;7.824;2023-01-31T04:21:46;101437.09;;;19.74;45.04
48872;BME280;36154;51.674;7.824;2023-01-31T04:24:11;101442.25;;;19.77;45.03
48872;BME280;36154;51.674;7.824;2023-01-31T04:26:37;101448.22;;;19.81;44.99
48872;BME280;36154;51.674;7.824;2023-01-31T04:29:03;101442.19;;;19.83;45.11
48872;BME280;36154;51.674;7.824;2023-01-31T04:31:28;101437.81;;;19.87;44.95
48872;BME280;36154;51.674;7.824;2023-01-31T04:33:53;101430.88;;;19.90;45.03
48872;BME280;36154;51.674;7.824;2023-01-31T04:36:20;101436.00;;;19.93;44.83
48872;BME280;36154;51.674;7.824;2023-01-31T04:38:45;101428.25;;;19.93;44.99
48872;BME280;36154;51.674;7.824;2023-01-31T04:41:10;101435.06;;;19.98;44.98
48872;BME280;36154;51.674;7.824;2023-01-31T04:43:35;101429.00;;;20.02;44.91
48872;BME280;36154;51.674;7.824;2023-01-31T04:46:01;101418.63;;;20.03;44.82
48872;BME280;36154;51.674;7.824;2023-01-31T04:48:26;101419.44;;;20.07;44.89
48872;BME280;36154;51.674;7.824;2023-01-31T04:50:51;101412.50;;;20.09;44.99
48872;BME280;36154;51.674;7.824;2023-01-31T04:53:17;101415.06;;;20.10;44.88
48872;BME280;36154;51.674;7.824;2023-01-31T04:55:42;101417.63;;;20.12;44.74
48872;BME280;36154;51.674;7.824;2023-01-31T04:58:07;101416.72;;;20.15;44.79
48872;BME280;36154;51.674;7.824;2023-01-31T05:00:33;101408.94;;;20.16;44.75
48872;BME280;36154;51.674;7.824;2023-01-31T05:02:58;101412.34;;;20.18;44.68
48872;BME280;36154;51.674;7.824;2023-01-31T05:05:23;101407.19;;;20.18;44.59
48872;BME280;36154;51.674;7.824;2023-01-31T05:07:48;101408.91;;;20.19;44.56
48872;BME280;36154;51.674;7.824;2023-01-31T05:10:14;101406.28;;;20.21;44.74
48872;BME280;36154;51.674;7.824;2023-01-31T05:12:40;101396.78;;;20.21;44.58
48872;BME280;36154;51.674;7.824;2023-01-31T05:15:05;101398.50;;;20.22;44.70
48872;BME280;36154;51.674;7.824;2023-01-31T05:17:35;101392.50;;;20.22;44.77
48872;BME280;36154;51.674;7.824;2023-01-31T05:20:00;101385.56;;;20.22;44.64
48872;BME280;36154;51.674;7.824;2023-01-31T05:22:25;101389.88;;;20.23;44.46
48872;BME280;36154;51.674;7.824;2023-01-31T05:24:51;101376.97;;;20.22;44.77
48872;BME280;36154;51.674;7.824;2023-01-31T05:27:17;101374.34;;;20.23;44.77
48872;BME280;36154;51.674;7.824;2023-01-31T05:29:43;101362.28;;;20.22;44.50
48872;BME280;36154;51.674;7.824;2023-01-31T05:32:09;101362.28;;;20.22;44.43
48872;BME280;36154;51.674;7.824;2023-01-31T05:34:34;101364.91;;;20.21;44.70
48872;BME280;36154;51.674;7.824;2023-01-31T05:37:00;101348.53;;;20.20;44.58
48872;BME280;36154;51.674;7.824;2023-01-31T05:39:26;101357.16;;;20.19;44.61
48872;BME280;36154;51.674;7.824;2023-01-31T05:41:51;101362.34;;;20.18;44.79
48872;BME280;36154;51.674;7.824;2023-01-31T05:44:17;101349.41;;;20.18;44.55
48872;BME280;36154;51.674;7.824;2023-01-31T05:46:43;101348.56;;;20.17;44.48
48872;BME280;36154;51.674;7.824;2023-01-31T05:49:08;101343.38;;;20.17;44.69
48872;BME280;36154;51.674;7.824;2023-01-31T05:51:33;101329.69;;;20.12;44.69
48872;BME280;36154;51.674;7.824;2023-01-31T05:53:59;101327.91;;;20.14;44.67
48872;BME280;36154;51.674;7.824;2023-01-31T05:56:24;101332.28;;;20.10;44.67
48872;BME280;36154;51.674;7.824;2023-01-31T05:58:49;101325.34;;;20.12;44.88
48872;BME280;36154;51.674;7.824;2023-01-31T06:01:20;101328.81;;;20.11;44.95
48872;BME280;36154;51.674;7.824;2023-01-31T06:03:45;101327.94;;;20.11;45.15
48872;BME280;36154;51.674;7.824;2023-01-31T06:06:11;101318.44;;;20.11;45.69
48872;BME280;36154;51.674;7.824;2023-01-31T06:08:37;101329.69;;;20.12;45.70
48872;BME280;36154;51.674;7.824;2023-01-31T06:11:03;101321.94;;;20.10;45.81
48872;BME280;36154;51.674;7.824;2023-01-31T06:13:31;101324.53;;;20.10;46.02
48872;BME280;36154;51.674;7.824;2023-01-31T06:15:57;101317.59;;;20.11;46.37
48872;BME280;36154;51.674;7.824;2023-01-31T06:18:22;101313.34;;;20.10;46.41
48872;BME280;36154;51.674;7.824;2023-01-31T06:20:48;101316.78;;;20.09;46.47
48872;BME280;36154;51.674;7.824;2023-01-31T06:23:13;101315.97;;;20.07;46.51
48872;BME280;36154;51.674;7.824;2023-01-31T06:25:38;101320.25;;;20.08;46.62
48872;BME280;36154;51.674;7.824;2023-01-31T06:28:04;101310.78;;;20.07;46.45
48872;BME280;36154;51.674;7.824;2023-01-31T06:30:30;101309.97;;;20.05;46.68
48872;BME280;36154;51.674;7.824;2023-01-31T06:32:58;101314.25;;;20.06;46.74
48872;BME280;36154;51.674;7.824;2023-01-31T06:35:23;101312.56;;;20.05;46.58
48872;BME280;36154;51.674;7.824;2023-01-31T06:37:49;101316.84;;;20.04;46.47
48872;BME280;36154;51.674;7.824;2023-01-31T06:40:14;101325.50;;;20.03;46.57
48872;BME280;36154;51.674;7.824;2023-01-31T06:42:39;101323.78;;;20.02;46.67
48872;BME280;36154;51.674;7.824;2023-01-31T06:45:05;101330.69;;;20.02;46.63
48872;BME280;36154;51.674;7.824;2023-01-31T06:47:30;101340.16;;;20.01;46.62
48872;BME280;36154;51.674;7.824;2023-01-31T06:49:55;101339.34;;;19.99;46.57
48872;BME280;36154;51.674;7.824;2023-01-31T06:52:21;101340.19;;;20.00;46.69
48872;BME280;36154;51.674;7.824;2023-01-31T06:54:46;101338.50;;;19.99;46.73
48872;BME280;36154;51.674;7.824;2023-01-31T06:57:11;101338.50;;;19.99;46.76
48872;BME280;36154;51.674;7.824;2023-01-31T06:59:36;101347.13;;;19.98;47.26
48872;BME280;36154;51.674;7.824;2023-01-31T07:02:02;101342.84;;;19.98;46.79
48872;BME280;36154;51.674;7.824;2023-01-31T07:04:27;101349.72;;;19.96;46.78
48872;BME280;36154;51.674;7.824;2023-01-31T07:06:52;101341.97;;;19.98;46.76
48872;BME280;36154;51.674;7.824;2023-01-31T07:09:18;101343.69;;;19.97;46.95
48872;BME280;36154;51.674;7.824;2023-01-31T07:11:43;101338.53;;;19.96;46.85
48872;BME280;36154;51.674;7.824;2023-01-31T07:14:08;101342.88;;;19.95;46.78
48872;BME280;36154;51.674;7.824;2023-01-31T07:16:33;101337.72;;;19.93;46.42
48872;BME280;36154;51.674;7.824;2023-01-31T07:18:59;101325.63;;;19.94;46.66
48872;BME280;36154;51.674;7.824;2023-01-31T07:21:24;101334.25;;;19.93;47.17
48872;BME280;36154;51.674;7.824;2023-01-31T07:23:50;101331.72;;;19.91;46.68
48872;BME280;36154;51.674;7.824;2023-01-31T07:26:16;101334.25;;;19.93;46.68
48872;BME280;36154;51.674;7.824;2023-01-31T07:28:41;101336.81;;;19.94;46.50
48872;BME280;36154;51.674;7.824;2023-01-31T07:31:10;101335.09;;;19.97;46.58
48872;BME280;36154;51.674;7.824;2023-01-31T07:33:37;101335.03;;;20.00;46.70
48872;BME280;36154;51.674;7.824;2023-01-31T07:36:04;101334.13;;;20.02;46.56
48872;BME280;36154;51.674;7.824;2023-01-31T07:38:30;101328.06;;;20.05;46.50
48872;BME280;36154;51.674;7.824;2023-01-31T07:41:02;101315.97;;;20.07;46.78
48872;BME280;36154;51.674;7.824;2023-01-31T07:43:28;101315.91;;;20.10;46.50
48872;BME280;36154;51.674;7.824;2023-01-31T07:45:54;101310.66;;;20.13;46.55
48872;BME280;36154;51.674;7.824;2023-01-31T07:48:19;101321.88;;;20.15;46.57
48872;BME280;36154;51.674;7.824;2023-01-31T07:50:49;101307.16;;;20.17;46.57
48872;BME280;36154;51.674;7.824;2023-01-31T07:53:14;101316.59;;;20.20;46.58
48872;BME280;36154;51.674;7.824;2023-01-31T07:55:39;101310.56;;;20.21;46.55
48872;BME280;36154;51.674;7.824;2023-01-31T07:58:05;101321.72;;;20.23;46.43
48872;BME280;36154;51.674;7.824;2023-01-31T08:00:30;101326.03;;;20.24;46.47
48872;BME280;36154;51.674;7.824;2023-01-31T08:03:30;101313.94;;;20.24;46.50
48872;BME280;36154;51.674;7.824;2023-01-31T08:08:24;101298.38;;;20.26;46.43
48872;BME280;36154;51.674;7.824;2023-01-31T08:10:50;101300.97;;;20.26;46.37
48872;BME280;36154;51.674;7.824;2023-01-31T08:13:15;101291.47;;;20.26;46.38
48872;BME280;36154;51.674;7.824;2023-01-31T08:15:40;101292.38;;;20.25;46.40
48872;BME280;36154;51.674;7.824;2023-01-31T08:18:06;101285.44;;;20.26;46.22
48872;BME280;36154;51.674;7.824;2023-01-31T08:20:31;101286.28;;;20.26;46.23
48872;BME280;36154;51.674;7.824;2023-01-31T08:22:56;101282.03;;;20.24;46.18
48872;BME280;36154;51.674;7.824;2023-01-31T08:25:24;101278.56;;;20.25;46.12
48872;BME280;36154;51.674;7.824;2023-01-31T08:27:50;101270.88;;;20.22;46.10
48872;BME280;36154;51.674;7.824;2023-01-31T08:30:16;101264.81;;;20.21;46.03
48872;BME280;36154;51.674;7.824;2023-01-31T08:32:41;101262.25;;;20.21;46.09
48872;BME280;36154;51.674;7.824;2023-01-31T08:35:06;101264.00;;;20.19;46.23
48872;BME280;36154;51.674;7.824;2023-01-31T08:37:33;101259.69;;;20.20;46.10
48872;BME280;36154;51.674;7.824;2023-01-31T08:39:58;101253.66;;;20.19;46.00
48872;BME280;36154;51.674;7.824;2023-01-31T08:42:23;101246.81;;;20.17;45.95
48872;BME280;36154;51.674;7.824;2023-01-31T08:44:49;101259.75;;;20.17;45.96
48872;BME280;36154;51.674;7.824;2023-01-31T08:47:14;101253.69;;;20.16;45.93
48872;BME280;36154;51.674;7.824;2023-01-31T08:49:39;101262.38;;;20.15;45.93
48872;BME280;36154;51.674;7.824;2023-01-31T08:52:05;101265.81;;;20.14;45.74
48872;BME280;36154;51.674;7.824;2023-01-31T08:54:30;101259.78;;;20.15;45.75
48872;BME280;36154;51.674;7.824;2023-01-31T08:56:55;101258.94;;;20.13;45.83
48872;BME280;36154;51.674;7.824;2023-01-31T08:59:21;101263.25;;;20.12;45.77
48872;BME280;36154;51.674;7.824;2023-01-31T09:01:46;101253.78;;;20.11;45.77
48872;BME280;36154;51.674;7.824;2023-01-31T09:04:12;101251.25;;;20.10;45.70
48872;BME280;36154;51.674;7.824;2023-01-31T09:06:37;101253.84;;;20.10;45.64
48872;BME280;36154;51.674;7.824;2023-01-31T09:09:02;101247.78;;;20.09;45.85
48872;BME280;36154;51.674;7.824;2023-01-31T09:11:29;101236.59;;;20.09;45.63
48872;BME280;36154;51.674;7.824;2023-01-31T09:13:54;101240.03;;;20.08;45.70
48872;BME280;36154;51.674;7.824;2023-01-31T09:16:20;101245.22;;;20.08;45.64
48872;BME280;36154;51.674;7.824;2023-01-31T09:18:45;101222.84;;;20.07;45.90
48872;BME280;36154;51.674;7.824;2023-01-31T09:21:17;101216.78;;;20.06;45.67
48872;BME280;36154;51.674;7.824;2023-01-31T09:23:45;101220.31;;;20.04;45.62
48872;BME280;36154;51.674;7.824;2023-01-31T09:26:11;101220.31;;;20.04;45.66
48872;BME280;36154;51.674;7.824;2023-01-31T09:28:36;101228.06;;;20.04;46.06
48872;BME280;36154;51.674;7.824;2023-01-31T09:31:07;101221.16;;;20.03;45.56
48872;BME280;36154;51.674;7.824;2023-01-31T09:33:33;101216.91;;;20.02;45.67
48872;BME280;36154;51.674;7.824;2023-01-31T09:36:02;101214.31;;;20.02;45.61
48872;BME280;36154;51.674;7.824;2023-01-31T09:38:28;101208.25;;;20.01;45.65
48872;BME280;36154;51.674;7.824;2023-01-31T09:40:54;101216.91;;;20.00;45.60
48872;BME280;36154;51.674;7.824;2023-01-31T09:43:24;101205.69;;;20.00;45.62
48872;BME280;36154;51.674;7.824;2023-01-31T09:45:53;101204.00;;;19.99;45.43
48872;BME280;36154;51.674;7.824;2023-01-31T09:48:24;101201.44;;;19.97;45.41
48872;BME280;36154;51.674;7.824;2023-01-31T09:50:52;101202.28;;;19.98;45.48
48872;BME280;36154;51.674;7.824;2023-01-31T09:53:22;101201.47;;;19.96;45.49
48872;BME280;36154;51.674;7.824;2023-01-31T09:56:03;101198.88;;;19.96;45.38
48872;BME280;36154;51.674;7.824;2023-01-31T10:01:16;101192.00;;;19.94;45.50
48872;BME280;36154;51.674;7.824;2023-01-31T10:06:30;101198.06;;;19.93;45.62
48872;BME280;36154;51.674;7.824;2023-01-31T10:09:13;101191.16;;;19.94;45.39
48872;BME280;36154;51.674;7.824;2023-01-31T10:11:55;101185.19;;;19.90;45.55
48872;BME280;36154;51.674;7.824;2023-01-31T10:14:41;101180.91;;;19.88;45.59
48872;BME280;36154;51.674;7.824;2023-01-31T10:17:42;101190.41;;;19.87;45.48
48872;BME280;36154;51.674;7.824;2023-01-31T10:20:21;101185.22;;;19.87;45.59
48872;BME280;36154;51.674;7.824;2023-01-31T10:22:56;101183.50;;;19.86;45.52
48872;BME280;36154;51.674;7.824;2023-01-31T10:25:51;101176.66;;;19.85;45.57
48872;BME280;36154;51.674;7.824;2023-01-31T10:33:54;101155.91;;;19.88;45.68
48872;BME280;36154;51.674;7.824;2023-01-31T10:36:26;101161.88;;;19.92;45.64
48872;BME280;36154;51.674;7.824;2023-01-31T10:38:54;101166.13;;;19.94;45.72
48872;BME280;36154;51.674;7.824;2023-01-31T10:41:33;101156.59;;;19.98;45.62
48872;BME280;36154;51.674;7.824;2023-01-31T10:44:06;101162.56;;;20.02;45.69
48872;BME280;36154;51.674;7.824;2023-01-31T10:46:36;101160.81;;;20.04;45.57
48872;BME280;36154;51.674;7.824;2023-01-31T10:49:02;101142.66;;;20.05;45.53
48872;BME280;36154;51.674;7.824;2023-01-31T10:51:31;101133.97;;;20.09;45.56
48872;BME280;36154;51.674;7.824;2023-01-31T10:56:50;101114.91;;;20.15;45.51
48872;BME280;36154;51.674;7.824;2023-01-31T10:59:30;101115.72;;;20.17;45.51
48872;BME280;36154;51.674;7.824;2023-01-31T11:01:58;101120.84;;;20.20;45.55
48872;BME280;36154;51.674;7.824;2023-01-31T11:04:30;101113.00;;;20.23;45.42
48872;BME280;36154;51.674;7.824;2023-01-31T11:06:58;101117.28;;;20.24;45.62
48872;BME280;36154;51.674;7.824;2023-01-31T11:09:27;101113.84;;;20.25;45.36
48872;BME280;36154;51.674;7.824;2023-01-31T11:11:58;101111.25;;;20.25;45.51
48872;BME280;36154;51.674;7.824;2023-01-31T11:14:24;101110.34;;;20.26;45.38
48872;BME280;36154;51.674;7.824;2023-01-31T11:16:57;101112.06;;;20.27;45.24
48872;BME280;36154;51.674;7.824;2023-01-31T11:19:34;101106.88;;;20.27;45.28
48872;BME280;36154;51.674;7.824;2023-01-31T11:22:02;101104.28;;;20.27;45.47
48872;BME280;36154;51.674;7.824;2023-01-31T11:24:31;101096.53;;;20.27;45.39
48872;BME280;36154;51.674;7.824;2023-01-31T11:27:06;101101.72;;;20.27;45.35
48872;BME280;36154;51.674;7.824;2023-01-31T11:29:37;101100.00;;;20.26;45.38
48872;BME280;36154;51.674;7.824;2023-01-31T11:32:16;101081.06;;;20.24;45.18
48872;BME280;36154;51.674;7.824;2023-01-31T11:34:55;101086.25;;;20.24;45.28
48872;BME280;36154;51.674;7.824;2023-01-31T11:37:21;101082.84;;;20.22;45.23
48872;BME280;36154;51.674;7.824;2023-01-31T11:39:57;101077.66;;;20.22;45.25
48872;BME280;36154;51.674;7.824;2023-01-31T11:42:24;101075.09;;;20.21;45.29
48872;BME280;36154;51.674;7.824;2023-01-31T11:45:16;101062.19;;;20.19;45.15
48872;BME280;36154;51.674;7.824;2023-01-31T11:47:48;101059.63;;;20.19;45.21
48872;BME280;36154;51.674;7.824;2023-01-31T11:50:36;101074.31;;;20.17;45.13
48872;BME280;36154;51.674;7.824;2023-01-31T11:53:13;101080.34;;;20.18;45.15
48872;BME280;36154;51.674;7.824;2023-01-31T11:55:40;101067.44;;;20.16;45.17
48872;BME280;36154;51.674;7.824;2023-01-31T11:58:41;101065.75;;;20.15;45.20
48872;BME280;36154;51.674;7.824;2023-01-31T12:01:18;101058.84;;;20.14;45.30
48872;BME280;36154;51.674;7.824;2023-01-31T12:03:47;101049.38;;;20.13;45.06
48872;BME280;36154;51.674;7.824;2023-01-31T12:06:28;101045.97;;;20.11;45.03
48872;BME280;36154;51.674;7.824;2023-01-31T12:08:55;101043.41;;;20.11;45.03
48872;BME280;36154;51.674;7.824;2023-01-31T12:13:53;101040.84;;;20.09;45.21
48872;BME280;36154;51.674;7.824;2023-01-31T12:16:26;101048.63;;;20.08;45.12
48872;BME280;36154;51.674;7.824;2023-01-31T12:21:33;101041.75;;;20.07;45.07
48872;BME280;36154;51.674;7.824;2023-01-31T12:41:32;101005.72;;;19.98;45.09
48872;BME280;36154;51.674;7.824;2023-01-31T12:44:11;100997.97;;;19.98;45.05
48872;BME280;36154;51.674;7.824;2023-01-31T12:55:28;100988.59;;;19.93;45.11
48872;BME280;36154;51.674;7.824;2023-01-31T12:58:26;100994.63;;;19.92;45.02
48872;BME280;36154;51.674;7.824;2023-01-31T13:01:02;100990.34;;;19.91;44.93
48872;BME280;36154;51.674;7.824;2023-01-31T13:06:19;100995.53;;;19.91;44.93
48872;BME280;36154;51.674;7.824;2023-01-31T13:08:58;100990.41;;;19.88;45.15
48872;BME280;36154;51.674;7.824;2023-01-31T13:11:30;100993.81;;;19.90;45.10
48872;BME280;36154;51.674;7.824;2023-01-31T13:14:02;101011.09;;;19.88;44.92
48872;BME280;36154;51.674;7.824;2023-01-31T13:16:32;100999.03;;;19.87;45.00
48872;BME280;36154;51.674;7.824;2023-01-31T13:19:04;101000.75;;;19.88;44.95
48872;BME280;36154;51.674;7.824;2023-01-31T13:21:35;101004.16;;;19.90;44.83
48872;BME280;36154;51.674;7.824;2023-01-31T13:24:11;101004.19;;;19.89;45.02
48872;BME280;36154;51.674;7.824;2023-01-31T13:26:42;101011.09;;;19.88;45.08
48872;BME280;36154;51.674;7.824;2023-01-31T13:29:23;101011.09;;;19.88;45.16
48872;BME280;36154;51.674;7.824;2023-01-31T13:32:08;101013.72;;;19.87;44.66
48872;BME280;36154;51.674;7.824;2023-01-31T13:34:49;101002.50;;;19.86;45.02
48872;BME280;36154;51.674;7.824;2023-01-31T13:37:16;101008.53;;;19.87;45.14
48872;BME280;36154;51.674;7.824;2023-01-31T13:39:57;100998.19;;;19.87;45.16
48872;BME280;36154;51.674;7.824;2023-01-31T13:42:23;100992.09;;;19.89;44.99
48872;BME280;36154;51.674;7.824;2023-01-31T13:44:49;101007.56;;;19.92;45.08
48872;BME280;36154;51.674;7.824;2023-01-31T13:47:22;101002.31;;;19.96;45.22
48872;BME280;36154;51.674;7.824;2023-01-31T13:49:54;100995.38;;;19.98;45.06
48872;BME280;36154;51.674;7.824;2023-01-31T13:55:00;100989.28;;;20.02;45.15
48872;BME280;36154;51.674;7.824;2023-01-31T13:57:31;100990.94;;;20.04;45.22
48872;BME280;36154;51.674;7.824;2023-01-31T14:00:07;100986.63;;;20.05;45.26
48872;BME280;36154;51.674;7.824;2023-01-31T14:02:35;100989.09;;;20.09;45.31
48872;BME280;36154;51.674;7.824;2023-01-31T14:05:49;100988.19;;;20.12;45.18
48872;BME280;36154;51.674;7.824;2023-01-31T14:10:49;100992.41;;;20.16;45.15
48872;BME280;36154;51.674;7.824;2023-01-31T14:13:23;100983.75;;;20.19;45.14
48872;BME280;36154;51.674;7.824;2023-01-31T14:15:51;100975.06;;;20.20;45.09
48872;BME280;36154;51.674;7.824;2023-01-31T14:18:42;100988.84;;;20.22;45.25
48872;BME280;36154;51.674;7.824;2023-01-31T14:23:52;100964.69;;;20.21;45.16
48872;BME280;36154;51.674;7.824;2023-01-31T14:26:51;100981.13;;;20.20;45.14
48872;BME280;36154;51.674;7.824;2023-01-31T14:29:20;100986.31;;;20.20;45.20
48872;BME280;36154;51.674;7.824;2023-01-31T14:31:48;100993.16;;;20.21;45.10